createdAt,value
2023-05-07T00:00:10.226Z,1.80
2023-05-07T00:02:40.293Z,1.47
2023-05-07T00:05:10.239Z,1.97
2023-05-07T00:07:39.052Z,1.93
2023-05-07T00:10:10.096Z,1.40
2023-05-07T00:12:38.773Z,1.47
2023-05-07T00:15:09.657Z,2.27
2023-05-07T00:17:39.907Z,1.70
2023-05-07T00:20:09.745Z,1.33
2023-05-07T00:25:08.282Z,1.77
2023-05-07T00:27:37.046Z,1.43
2023-05-07T00:30:06.496Z,1.60
2023-05-07T00:32:34.959Z,1.50
2023-05-07T00:35:06.629Z,1.37
2023-05-07T00:37:35.003Z,1.43
2023-05-07T00:40:05.637Z,1.67
2023-05-07T00:42:34.400Z,1.67
2023-05-07T00:45:02.904Z,1.77
2023-05-07T00:47:31.498Z,1.57
2023-05-07T00:50:00.634Z,1.73
2023-05-07T00:52:31.248Z,2.10
2023-05-07T00:54:59.709Z,1.87
2023-05-07T00:57:28.081Z,2.10
2023-05-07T00:59:56.623Z,1.70
2023-05-07T01:02:25.391Z,1.70
2023-05-07T01:04:53.947Z,1.60
2023-05-07T01:07:22.970Z,3.00
2023-05-07T01:09:52.932Z,3.03
2023-05-07T01:12:21.937Z,1.90
2023-05-07T01:14:51.500Z,1.93
2023-05-07T01:17:20.181Z,2.10
2023-05-07T01:19:50.054Z,1.90
2023-05-07T01:22:33.109Z,1.77
2023-05-07T01:25:02.689Z,1.50
2023-05-07T01:27:32.071Z,1.90
2023-05-07T01:30:00.755Z,1.60
2023-05-07T01:32:35.932Z,2.17
2023-05-07T01:35:07.937Z,1.90
2023-05-07T01:37:38.646Z,1.57
2023-05-07T01:40:09.507Z,1.73
2023-05-07T01:42:38.883Z,2.47
2023-05-07T01:45:09.003Z,1.97
2023-05-07T01:47:39.545Z,2.00
2023-05-07T01:50:11.168Z,2.67
2023-05-07T01:52:42.105Z,1.90
2023-05-07T01:55:11.175Z,2.03
2023-05-07T01:57:39.520Z,1.87
2023-05-07T02:00:10.224Z,1.60
2023-05-07T02:02:46.485Z,2.17
2023-05-07T02:05:33.331Z,1.93
2023-05-07T02:08:09.400Z,1.87
2023-05-07T02:10:38.060Z,1.70
2023-05-07T02:13:08.222Z,1.73
2023-05-07T02:15:36.953Z,1.83
2023-05-07T02:18:08.742Z,1.73
2023-05-07T02:20:37.677Z,2.47
2023-05-07T02:23:06.261Z,1.97
2023-05-07T02:25:36.030Z,1.90
2023-05-07T02:28:04.950Z,2.10
2023-05-07T02:30:56.404Z,2.33
2023-05-07T02:33:24.918Z,2.40
2023-05-07T02:35:53.699Z,2.73
2023-05-07T02:38:22.265Z,1.77
2023-05-07T02:40:52.397Z,1.93
2023-05-07T02:43:20.796Z,1.97
2023-05-07T02:45:51.313Z,2.10
2023-05-07T02:48:19.784Z,1.93
2023-05-07T02:50:48.173Z,3.23
2023-05-07T02:53:17.273Z,2.10
2023-05-07T02:55:46.363Z,2.33
2023-05-07T02:58:16.325Z,2.27
2023-05-07T03:00:45.421Z,3.30
2023-05-07T03:03:34.226Z,2.20
2023-05-07T03:06:02.989Z,2.30
2023-05-07T03:08:31.481Z,2.80
2023-05-07T03:11:00.734Z,1.70
2023-05-07T03:13:30.805Z,1.93
2023-05-07T03:15:59.703Z,2.17
2023-05-07T03:18:28.035Z,2.10
2023-05-07T03:20:56.510Z,2.33
2023-05-07T03:23:25.261Z,2.00
2023-05-07T03:25:53.844Z,1.90
2023-05-07T03:28:22.258Z,2.00
2023-05-07T03:31:00.848Z,2.03
2023-05-07T03:33:29.489Z,2.07
2023-05-07T03:35:58.561Z,2.80
2023-05-07T03:38:28.520Z,2.77
2023-05-07T03:40:57.191Z,3.27
2023-05-07T03:43:25.758Z,3.40
2023-05-07T03:46:03.678Z,3.50
2023-05-07T03:48:32.112Z,3.27
2023-05-07T03:51:01.802Z,3.67
2023-05-07T03:53:34.223Z,3.20
2023-05-07T03:56:03.310Z,3.20
2023-05-07T03:58:36.244Z,3.57
2023-05-07T04:01:10.967Z,3.47
2023-05-07T04:03:39.636Z,2.97
2023-05-07T04:06:08.503Z,3.67
2023-05-07T04:08:38.178Z,3.43
2023-05-07T04:11:07.945Z,3.40
2023-05-07T04:13:38.615Z,3.57
2023-05-07T04:16:10.547Z,3.20
2023-05-07T04:18:40.413Z,2.90
2023-05-07T04:21:16.198Z,2.70
2023-05-07T04:23:44.730Z,2.90
2023-05-07T04:26:15.071Z,2.63
2023-05-07T04:28:46.608Z,2.73
2023-05-07T04:31:18.154Z,3.70
2023-05-07T04:33:51.671Z,2.57
2023-05-07T04:36:20.851Z,2.60
2023-05-07T04:38:54.671Z,3.43
2023-05-07T04:41:23.236Z,3.30
2023-05-07T04:43:52.589Z,3.37
2023-05-07T04:46:26.006Z,2.37
2023-05-07T04:48:55.926Z,2.30
2023-05-07T04:51:24.424Z,2.40
2023-05-07T04:53:53.480Z,2.03
2023-05-07T04:56:22.692Z,2.30
2023-05-07T04:58:51.140Z,2.13
2023-05-07T05:01:24.099Z,2.40
2023-05-07T05:03:53.563Z,2.00
2023-05-07T05:06:22.863Z,2.00
2023-05-07T05:08:53.371Z,1.90
2023-05-07T05:11:22.852Z,1.90
2023-05-07T05:13:51.561Z,2.47
2023-05-07T05:16:24.328Z,2.23
2023-05-07T05:18:53.116Z,2.03
2023-05-07T05:21:21.866Z,1.73
2023-05-07T05:23:53.992Z,1.90
2023-05-07T05:26:25.449Z,2.20
2023-05-07T05:28:53.916Z,2.23
2023-05-07T05:31:27.213Z,1.83
2023-05-07T05:33:55.599Z,2.33
2023-05-07T05:36:24.703Z,1.80
2023-05-07T05:38:56.200Z,2.07
2023-05-07T05:41:25.939Z,3.30
2023-05-07T05:43:54.721Z,3.00
2023-05-07T05:46:23.850Z,1.87
2023-05-07T05:48:55.081Z,1.73
2023-05-07T05:51:24.275Z,1.90
2023-05-07T05:53:52.779Z,1.80
2023-05-07T05:56:23.057Z,1.73
2023-05-07T05:58:51.762Z,1.67
2023-05-07T06:01:20.824Z,1.50
2023-05-07T06:03:51.852Z,1.60
2023-05-07T06:06:21.926Z,1.43
2023-05-07T06:08:50.250Z,1.20
2023-05-07T06:11:23.620Z,1.37
2023-05-07T06:13:52.636Z,1.50
2023-05-07T06:16:21.065Z,2.03
2023-05-07T06:18:49.986Z,1.67
2023-05-07T06:21:19.531Z,1.30
2023-05-07T06:23:49.297Z,1.40
2023-05-07T06:26:18.092Z,1.23
2023-05-07T06:28:49.158Z,1.53
2023-05-07T06:31:22.594Z,1.50
2023-05-07T06:34:04.129Z,1.60
2023-05-07T06:36:37.577Z,1.00
2023-05-07T06:39:16.447Z,2.60
2023-05-07T06:41:45.325Z,1.00
2023-05-07T06:44:24.205Z,1.37
2023-05-07T06:47:09.637Z,1.30
2023-05-07T06:49:40.924Z,1.33
2023-05-07T06:52:09.392Z,1.30
2023-05-07T06:54:39.422Z,1.57
2023-05-07T06:57:08.336Z,1.10
2023-05-07T06:59:37.494Z,1.20
2023-05-07T07:02:06.523Z,0.97
2023-05-07T07:04:35.186Z,1.20
2023-05-07T07:07:07.960Z,1.93
2023-05-07T07:09:39.078Z,2.07
2023-05-07T07:12:09.297Z,2.13
2023-05-07T07:14:40.089Z,1.10
2023-05-07T07:17:08.765Z,1.53
2023-05-07T07:19:38.675Z,1.73
2023-05-07T07:22:07.089Z,1.10
2023-05-07T07:24:35.712Z,1.23
2023-05-07T07:27:08.861Z,0.93
2023-05-07T07:29:37.400Z,1.23
2023-05-07T07:32:06.625Z,0.90
2023-05-07T07:34:35.079Z,0.90
2023-05-07T07:37:07.152Z,0.70
2023-05-07T07:39:38.616Z,0.90
2023-05-07T07:42:09.718Z,2.07
2023-05-07T07:44:40.548Z,0.87
2023-05-07T07:47:11.663Z,0.70
2023-05-07T07:49:40.600Z,0.60
2023-05-07T07:52:10.964Z,0.70
2023-05-07T07:54:40.875Z,0.60
2023-05-07T07:57:11.527Z,0.80
2023-05-07T07:59:40.544Z,1.13
2023-05-07T08:02:09.987Z,0.90
2023-05-07T08:04:39.412Z,0.73
2023-05-07T08:07:09.590Z,0.93
2023-05-07T08:09:42.168Z,0.90
2023-05-07T08:12:14.278Z,1.00
2023-05-07T08:14:42.975Z,2.10
2023-05-07T08:17:11.823Z,1.20
2023-05-07T08:19:40.556Z,0.80
2023-05-07T08:22:12.984Z,1.07
2023-05-07T08:24:42.189Z,3.20
2023-05-07T08:27:11.161Z,0.80
2023-05-07T08:29:43.196Z,0.93
2023-05-07T08:32:12.500Z,0.83
2023-05-07T08:34:41.267Z,0.93
2023-05-07T08:37:09.977Z,1.03
2023-05-07T08:39:39.157Z,1.20
2023-05-07T08:42:13.647Z,1.20
2023-05-07T08:44:47.875Z,1.30
2023-05-07T08:47:18.445Z,1.90
2023-05-07T08:49:48.991Z,0.87
2023-05-07T08:52:17.600Z,1.33
2023-05-07T08:54:46.932Z,1.57
2023-05-07T08:57:15.468Z,1.40
2023-05-07T08:59:45.723Z,1.20
2023-05-07T09:02:14.972Z,1.40
2023-05-07T09:04:43.782Z,2.10
2023-05-07T09:07:12.752Z,1.37
2023-05-07T09:09:47.207Z,1.30
2023-05-07T09:12:16.977Z,1.67
2023-05-07T09:14:46.968Z,1.33
2023-05-07T09:17:15.773Z,1.93
2023-05-07T09:19:46.377Z,1.53
2023-05-07T09:22:16.513Z,1.33
2023-05-07T09:25:09.418Z,1.43
2023-05-07T09:27:40.146Z,3.13
2023-05-07T09:30:12.448Z,1.77
2023-05-07T09:32:41.267Z,1.60
2023-05-07T09:35:18.700Z,1.80
2023-05-07T09:37:52.538Z,2.47
2023-05-07T09:40:26.590Z,3.03
2023-05-07T09:42:56.960Z,2.00
2023-05-07T09:45:30.855Z,2.20
2023-05-07T09:48:01.199Z,2.30
2023-05-07T09:50:38.375Z,2.53
2023-05-07T09:53:07.509Z,2.40
2023-05-07T09:55:36.285Z,2.03
2023-05-07T09:58:06.502Z,2.43
2023-05-07T10:00:37.462Z,2.67
2023-05-07T10:03:14.074Z,2.53
2023-05-07T10:05:54.154Z,2.43
2023-05-07T10:08:23.833Z,2.40
2023-05-07T10:10:56.101Z,2.37
2023-05-07T10:13:27.177Z,2.50
2023-05-07T10:16:00.746Z,2.53
2023-05-07T10:18:34.726Z,2.57
2023-05-07T10:21:18.787Z,2.10
2023-05-07T10:23:52.287Z,3.00
2023-05-07T10:26:25.272Z,2.40
2023-05-07T10:29:01.803Z,2.40
2023-05-07T10:31:54.978Z,2.17
2023-05-07T10:34:26.959Z,2.27
2023-05-07T10:36:57.773Z,2.73
2023-05-07T10:39:27.023Z,2.20
2023-05-07T10:41:55.967Z,1.70
2023-05-07T10:44:29.921Z,1.40
2023-05-07T10:47:12.443Z,3.47
2023-05-07T10:50:22.936Z,1.30
2023-05-07T10:53:30.831Z,1.30
2023-05-07T10:56:31.908Z,1.10
2023-05-07T10:59:43.769Z,1.50
2023-05-07T11:02:25.944Z,1.40
2023-05-07T11:05:23.163Z,1.60
2023-05-07T11:08:12.408Z,1.30
2023-05-07T11:10:55.738Z,1.30
2023-05-07T11:13:46.960Z,1.40
2023-05-07T11:16:37.819Z,1.47
2023-05-07T11:19:16.863Z,1.40
2023-05-07T11:21:50.505Z,1.77
2023-05-07T11:24:43.152Z,1.40
2023-05-07T11:27:13.330Z,1.63
2023-05-07T11:29:41.979Z,1.40
2023-05-07T11:32:15.363Z,1.17
2023-05-07T11:34:55.019Z,1.90
2023-05-07T11:37:25.698Z,1.47
2023-05-07T11:40:09.884Z,1.77
2023-05-07T11:42:40.432Z,1.50
2023-05-07T11:45:10.796Z,1.30
2023-05-07T11:47:39.720Z,1.63
2023-05-07T11:50:13.086Z,1.70
2023-05-07T11:52:41.526Z,2.00
2023-05-07T11:55:11.038Z,2.10
2023-05-07T11:57:39.682Z,2.70
2023-05-07T12:00:09.208Z,1.90
2023-05-07T12:02:44.002Z,2.43
2023-05-07T12:05:15.017Z,2.10
2023-05-07T12:07:43.495Z,1.70
2023-05-07T12:10:14.648Z,2.00
2023-05-07T12:12:44.114Z,2.17
2023-05-07T12:15:13.082Z,1.97
2023-05-07T12:17:42.905Z,2.10
2023-05-07T12:20:14.205Z,2.40
2023-05-07T12:22:43.371Z,2.03
2023-05-07T12:25:12.375Z,2.60
2023-05-07T12:27:43.022Z,2.10
2023-05-07T12:30:14.558Z,2.07
2023-05-07T12:32:43.058Z,2.07
2023-05-07T12:35:13.176Z,1.63
2023-05-07T12:37:43.464Z,2.10
2023-05-07T12:40:14.151Z,1.77
2023-05-07T12:42:43.452Z,1.60
2023-05-07T12:45:13.509Z,2.13
2023-05-07T12:47:46.141Z,2.50
2023-05-07T12:50:17.525Z,1.93
2023-05-07T12:52:46.460Z,2.50
2023-05-07T12:55:17.745Z,1.87
2023-05-07T12:57:51.461Z,2.13
2023-05-07T13:00:20.505Z,2.20
2023-05-07T13:02:49.283Z,1.93
2023-05-07T13:05:19.489Z,2.57
2023-05-07T13:07:55.844Z,2.27
2023-05-07T13:10:25.456Z,2.43
2023-05-07T13:12:54.177Z,2.00
2023-05-07T13:15:24.247Z,2.30
2023-05-07T13:17:52.926Z,2.03
2023-05-07T13:20:23.029Z,1.90
2023-05-07T13:22:51.618Z,1.60
2023-05-07T13:25:20.331Z,1.40
2023-05-07T13:27:56.424Z,0.90
2023-05-07T13:30:31.553Z,1.07
2023-05-07T13:32:59.973Z,1.57
2023-05-07T13:35:30.778Z,1.47
2023-05-07T13:37:59.493Z,1.43
2023-05-07T13:40:28.388Z,1.17
2023-05-07T13:42:59.636Z,2.27
2023-05-07T13:45:30.332Z,1.67
2023-05-07T13:47:59.349Z,1.70
2023-05-07T13:50:30.834Z,2.90
2023-05-07T13:52:59.392Z,1.67
2023-05-07T13:55:28.202Z,1.60
2023-05-07T13:58:01.496Z,1.80
2023-05-07T14:00:31.370Z,1.83
2023-05-07T14:03:00.252Z,1.60
2023-05-07T14:05:30.526Z,1.83
2023-05-07T14:08:00.721Z,1.50
2023-05-07T14:10:29.386Z,1.77
2023-05-07T14:12:57.917Z,1.83
2023-05-07T14:15:26.384Z,1.97
2023-05-07T14:17:54.890Z,1.90
2023-05-07T14:20:23.367Z,1.87
2023-05-07T14:22:53.220Z,2.00
2023-05-07T14:25:21.618Z,1.77
2023-05-07T14:27:53.185Z,2.20
2023-05-07T14:30:23.384Z,2.20
2023-05-07T14:32:51.873Z,2.17
2023-05-07T14:35:20.484Z,2.10
2023-05-07T14:37:49.154Z,2.27
2023-05-07T14:40:19.363Z,2.20
2023-05-07T14:42:47.945Z,2.10
2023-05-07T14:45:16.450Z,2.60
2023-05-07T14:47:45.365Z,2.57
2023-05-07T14:50:13.857Z,2.03
2023-05-07T14:52:42.236Z,2.40
2023-05-07T14:55:11.487Z,3.93
2023-05-07T14:57:41.490Z,2.20
2023-05-07T15:00:12.318Z,2.27
2023-05-07T15:02:40.958Z,3.40
2023-05-07T15:05:10.087Z,2.50
2023-05-07T15:07:38.881Z,2.40
2023-05-07T15:10:08.913Z,2.33
2023-05-07T15:12:38.047Z,2.27
2023-05-07T15:15:10.874Z,2.10
2023-05-07T15:17:39.846Z,2.13
2023-05-07T15:20:10.052Z,2.83
2023-05-07T15:22:39.654Z,3.07
2023-05-07T15:25:10.635Z,1.73
2023-05-07T15:27:39.501Z,1.20
2023-05-07T15:30:12.191Z,1.60
2023-05-07T15:32:41.358Z,1.40
2023-05-07T15:35:11.722Z,2.97
2023-05-07T15:37:40.441Z,1.00
2023-05-07T15:40:11.697Z,1.20
2023-05-07T15:42:40.521Z,1.27
2023-05-07T15:45:12.838Z,1.20
2023-05-07T15:47:41.615Z,1.70
2023-05-07T15:50:11.231Z,1.30
2023-05-07T15:52:41.689Z,1.20
2023-05-07T15:55:11.165Z,1.07
2023-05-07T15:57:40.106Z,1.23
2023-05-07T16:00:12.599Z,3.70
2023-05-07T16:02:41.380Z,1.50
2023-05-07T16:05:12.018Z,1.40
2023-05-07T16:07:44.160Z,1.40
2023-05-07T16:10:13.394Z,1.30
2023-05-07T16:12:42.045Z,2.03
2023-05-07T16:15:13.630Z,1.50
2023-05-07T16:17:42.245Z,1.87
2023-05-07T16:20:13.103Z,1.10
2023-05-07T16:22:42.431Z,1.10
2023-05-07T16:25:11.619Z,1.10
2023-05-07T16:27:40.554Z,1.37
2023-05-07T16:30:12.115Z,0.90
2023-05-07T16:32:41.088Z,1.60
2023-05-07T16:35:10.824Z,1.70
2023-05-07T16:37:42.652Z,1.40
2023-05-07T16:40:12.675Z,1.17
2023-05-07T16:42:41.456Z,1.17
2023-05-07T16:45:13.665Z,1.20
2023-05-07T16:47:42.331Z,1.20
2023-05-07T16:50:12.260Z,1.33
2023-05-07T16:52:40.784Z,1.43
2023-05-07T16:55:10.280Z,1.13
2023-05-07T16:57:38.799Z,1.30
2023-05-07T17:00:09.947Z,1.23
2023-05-07T17:02:39.997Z,1.50
2023-05-07T17:05:10.328Z,1.40
2023-05-07T17:07:39.338Z,1.30
2023-05-07T17:10:09.389Z,1.40
2023-05-07T17:12:38.155Z,1.30
2023-05-07T17:15:07.989Z,1.43
2023-05-07T17:17:36.427Z,1.27
2023-05-07T17:20:09.202Z,1.90
2023-05-07T17:22:37.576Z,1.27
2023-05-07T17:25:07.357Z,1.50
2023-05-07T17:27:35.912Z,1.50
2023-05-07T17:30:04.769Z,1.60
2023-05-07T17:32:35.102Z,1.50
2023-05-07T17:35:03.844Z,1.60
2023-05-07T17:37:33.682Z,1.10
2023-05-07T17:40:03.004Z,2.50
2023-05-07T17:42:32.123Z,1.50
2023-05-07T17:45:00.899Z,1.50
2023-05-07T17:47:29.412Z,1.73
2023-05-07T17:49:58.401Z,1.30
2023-05-07T17:52:27.484Z,1.43
2023-05-07T17:54:57.575Z,1.40
2023-05-07T17:57:26.747Z,1.60
2023-05-07T17:59:55.165Z,1.00
2023-05-07T18:02:23.855Z,1.40
2023-05-07T18:04:52.350Z,1.30
2023-05-07T18:07:21.453Z,1.30
2023-05-07T18:09:50.351Z,1.37
2023-05-07T18:12:20.459Z,1.07
2023-05-07T18:14:48.849Z,1.37
2023-05-07T18:17:18.161Z,1.13
2023-05-07T18:19:46.607Z,1.23
2023-05-07T18:22:15.313Z,0.93
2023-05-07T18:24:43.735Z,1.53
2023-05-07T18:27:13.558Z,1.70
2023-05-07T18:29:43.467Z,1.37
2023-05-07T18:32:12.106Z,1.30
2023-05-07T18:34:40.598Z,1.33
2023-05-07T18:37:09.100Z,1.20
2023-05-07T18:39:37.621Z,1.97
2023-05-07T18:42:08.195Z,1.37
2023-05-07T18:44:38.591Z,1.10
2023-05-07T18:47:08.878Z,1.47
2023-05-07T18:49:38.070Z,1.43
2023-05-07T18:52:06.785Z,0.87
2023-05-07T18:54:35.276Z,1.53
2023-05-07T18:57:03.682Z,1.10
2023-05-07T18:59:32.212Z,1.60
2023-05-07T19:02:00.731Z,2.07
2023-05-07T19:04:32.072Z,1.67
2023-05-07T19:07:01.133Z,1.13
2023-05-07T19:09:29.514Z,0.90
2023-05-07T19:11:58.142Z,1.20
2023-05-07T19:14:26.958Z,1.40
2023-05-07T19:16:55.636Z,0.90
2023-05-07T19:19:24.317Z,1.07
2023-05-07T19:21:54.643Z,1.37
2023-05-07T19:24:23.225Z,1.23
2023-05-07T19:26:51.716Z,1.10
2023-05-07T19:29:20.104Z,1.50
2023-05-07T19:31:49.175Z,1.80
2023-05-07T19:34:17.590Z,1.47
2023-05-07T19:36:46.051Z,3.37
2023-05-07T19:39:17.247Z,1.70
2023-05-07T19:41:46.832Z,1.73
2023-05-07T19:44:15.269Z,1.60
2023-05-07T19:46:45.858Z,1.77
2023-05-07T19:49:14.490Z,1.67
2023-05-07T19:51:42.881Z,2.37
2023-05-07T19:54:11.374Z,1.70
2023-05-07T19:56:41.966Z,1.67
2023-05-07T19:59:10.892Z,1.60
2023-05-07T20:01:40.162Z,2.00
2023-05-07T20:04:08.793Z,1.70
2023-05-07T20:06:37.680Z,1.77
2023-05-07T20:09:07.526Z,1.77
2023-05-07T20:11:36.187Z,2.37
2023-05-07T20:14:06.325Z,2.40
2023-05-07T20:16:34.855Z,2.13
2023-05-07T20:19:05.533Z,2.10
2023-05-07T20:21:34.047Z,2.20
2023-05-07T20:24:02.533Z,2.17
2023-05-07T20:26:31.013Z,2.60
2023-05-07T20:28:59.630Z,2.87
2023-05-07T20:31:32.023Z,3.30
2023-05-07T20:34:00.491Z,3.40
2023-05-07T20:36:29.503Z,2.93
2023-05-07T20:38:57.902Z,3.60
2023-05-07T20:41:26.193Z,3.97
2023-05-07T20:43:54.577Z,3.67
2023-05-07T20:46:25.202Z,3.80
2023-05-07T20:48:55.290Z,4.40
2023-05-07T20:51:23.751Z,4.10
2023-05-07T20:53:52.505Z,3.87
2023-05-07T20:56:21.380Z,3.93
2023-05-07T20:58:49.794Z,3.90
2023-05-07T21:01:18.280Z,3.53
2023-05-07T21:03:46.814Z,3.90
2023-05-07T21:06:16.734Z,4.30
2023-05-07T21:08:45.142Z,4.40
2023-05-07T21:11:13.569Z,4.57
2023-05-07T21:13:42.384Z,4.20
2023-05-07T21:16:11.416Z,4.63
2023-05-07T21:18:39.886Z,4.37
2023-05-07T21:21:11.413Z,4.10
2023-05-07T21:23:41.346Z,3.57
2023-05-07T21:26:10.274Z,4.03
2023-05-07T21:28:38.889Z,3.90
2023-05-07T21:31:07.351Z,4.50
2023-05-07T21:33:35.876Z,4.40
2023-05-07T21:36:04.296Z,4.60
2023-05-07T21:38:32.676Z,5.10
2023-05-07T21:41:02.470Z,4.00
2023-05-07T21:43:31.327Z,4.53
2023-05-07T21:46:00.486Z,4.57
2023-05-07T21:48:28.951Z,4.97
2023-05-07T21:51:05.166Z,4.90
2023-05-07T21:53:34.140Z,3.77
2023-05-07T21:56:04.979Z,4.43
2023-05-07T21:58:33.686Z,4.53
2023-05-07T22:01:02.609Z,4.50
2023-05-07T22:03:31.111Z,4.50
2023-05-07T22:05:59.652Z,4.40
2023-05-07T22:08:27.954Z,4.87
2023-05-07T22:10:56.783Z,4.63
2023-05-07T22:13:27.082Z,5.17
2023-05-07T22:15:58.453Z,5.10
2023-05-07T22:18:27.463Z,5.00
2023-05-07T22:20:55.985Z,4.47
2023-05-07T22:23:24.967Z,5.67
2023-05-07T22:25:53.851Z,4.53
2023-05-07T22:28:22.775Z,4.77
2023-05-07T22:30:53.498Z,4.80
2023-05-07T22:33:22.258Z,4.50
2023-05-07T22:35:50.934Z,4.63
2023-05-07T22:38:19.450Z,5.00
2023-05-07T22:40:47.820Z,4.50
2023-05-07T22:43:16.239Z,4.23
2023-05-07T22:45:44.590Z,4.63
2023-05-07T22:48:14.752Z,4.93
2023-05-07T22:50:43.278Z,5.10
2023-05-07T22:53:11.603Z,5.20
2023-05-07T22:55:39.975Z,5.10
2023-05-07T22:58:08.730Z,5.27
2023-05-07T23:00:37.562Z,5.10
2023-05-07T23:03:06.139Z,5.23
2023-05-07T23:05:36.246Z,4.40
2023-05-07T23:08:05.297Z,4.20
2023-05-07T23:10:35.074Z,4.80
2023-05-07T23:13:03.573Z,4.70
2023-05-07T23:15:33.400Z,4.93
2023-05-07T23:18:01.796Z,4.60
2023-05-07T23:20:32.515Z,5.10
2023-05-07T23:23:02.911Z,5.37
2023-05-07T23:25:31.400Z,5.23
2023-05-07T23:28:00.695Z,5.10
2023-05-07T23:30:29.072Z,5.13
2023-05-07T23:32:57.456Z,4.60
2023-05-07T23:35:25.821Z,5.33
2023-05-07T23:37:54.269Z,5.00
2023-05-07T23:40:24.439Z,5.30
2023-05-07T23:42:53.173Z,5.30
2023-05-07T23:45:21.558Z,5.37
2023-05-07T23:47:49.929Z,4.50
2023-05-07T23:50:18.791Z,5.53
2023-05-07T23:52:47.348Z,5.13
2023-05-07T23:55:16.772Z,5.00
2023-05-07T23:57:46.916Z,4.87
